Date,TemperatureHighF,TemperatureAvgF,TemperatureLowF,DewpointHighF,DewpointAvgF,DewpointLowF,HumidityHigh,HumidityAvg,HumidityLow,PressureMaxIn,PressureMinIn,WindSpeedMaxMPH,WindSpeedAvgMPH,GustSpeedMaxMPH,PrecipitationSumIn
2013-3-2,49,46,43,45,42,39,92,86,83,30.25,30.18,4,0,0,0.04
2013-3-3,53,42,33,40,36,32,98,81,49,30.32,30.24,4,0,0,0.01
2013-3-4,58,44,32,36,31,26,98,64,34,30.26,29.91,5,1,0,0.00
2013-3-5,48,42,37,43,37,27,94,81,53,29.91,29.65,4,0,0,0.26
2013-3-6,45,43,41,43,41,39,97,93,86,29.96,29.54,6,1,0,0.35
2013-3-7,58,46,33,42,37,32,99,75,42,30.06,29.96,3,0,0,0.00
2013-3-8,60,46,32,40,36,32,98,74,37,30.21,30.03,3,0,0,0.00
2013-3-9,61,45,31,42,37,30,98,75,37,30.49,30.21,2,0,0,0.00
2013-3-10,50,44,36,44,40,35,96,86,73,30.50,30.42,1,0,0,0.00
2013-3-11,56,50,45,50,47,43,93,88,80,30.43,30.24,1,0,0,0.00
2013-3-12,62,54,49,51,49,46,97,82,62,30.23,30.15,5,1,0,0.00
2013-3-13,66,55,47,50,48,45,94,78,54,30.22,30.08,2,0,0,0.00
2013-3-14,62,54,47,50,47,39,98,79,46,30.20,30.05,4,0,0,0.00
2013-3-15,66,57,50,52,48,44,92,74,46,30.22,30.15,5,1,0,0.00
2013-3-16,52,48,40,48,44,38,96,88,77,30.17,30.01,10,1,0,0.14
2013-3-17,51,44,38,39,36,33,95,74,49,30.30,30.14,5,1,0,0.01
2013-3-18,54,45,38,39,37,35,90,75,53,30.28,30.17,3,1,0,0.00
2013-3-19,54,45,39,45,39,33,97,81,53,30.16,29.67,2,0,0,0.55
2013-3-20,54,49,41,52,44,35,99,84,62,30.16,29.52,14,2,0,0.38
2013-3-21,53,43,39,40,36,33,91,77,49,30.30,30.16,3,1,0,0.04
2013-3-22,47,40,35,40,36,32,98,86,57,30.39,30.29,2,0,0,0.19
2013-3-23,52,41,33,39,34,28,99,79,44,30.39,30.28,3,0,0,0.00
2013-3-24,55,43,36,36,34,32,91,73,45,30.28,30.08,4,0,0,0.00
2013-3-25,63,52,42,38,34,30,75,52,33,30.09,29.90,2,0,0,0.00
2013-3-26,54,48,39,47,43,37,93,83,67,30.02,29.96,2,0,0,0.00
2013-3-27,68,54,40,51,45,39,99,76,41,29.99,29.89,3,0,0,0.00
2013-3-28,67,55,44,51,47,44,99,76,43,30.12,29.99,3,0,0,0.00
2013-3-29,70,59,49,52,48,45,94,70,43,30.20,30.12,4,0,0,0.00
2013-3-30,79,60,43,52,48,42,97,68,35,30.18,29.96,5,0,0,0.00
2013-3-31,77,62,46,53,49,43,92,63,36,30.00,29.88,4,1,0,0.00